Time;durP1;ratioP1;P1;durP2;ratioP2;P2;SDS_P1;SDS_P2;PMS_P1;PMS_P2;Temp;Humidity;BMP_temperature;BMP_pressure;BME280_temperature;BME280_humidity;BME280_pressure;Samples;Min_cycle;Max_cycle;Signal;HPM_P1;HPM_P2
2021/01/11 00:01:45;;;;;;;3.20;3.00;;;;;;;21.24;37.26;101640.13;5056415;28;20259;-66
2021/01/11 00:04:11;;;;;;;3.00;2.80;;;;;;;21.21;37.14;101644.00;5022849;28;20226;-68
2021/01/11 00:06:40;;;;;;;3.13;2.93;;;;;;;21.21;36.99;101641.28;5056127;28;20669;-71
2021/01/11 00:09:07;;;;;;;3.00;2.80;;;;;;;21.19;37.03;101631.56;5022833;28;20187;-71
2021/01/11 00:11:35;;;;;;;2.80;2.60;;;;;;;21.18;37.09;101629.84;5022872;28;20207;-71
2021/01/11 00:14:02;;;;;;;2.90;2.70;;;;;;;21.18;37.06;101621.69;5066677;28;20671;-71
2021/01/11 00:16:28;;;;;;;3.03;2.83;;;;;;;21.15;37.20;101621.00;5049736;28;20249;-71
2021/01/11 00:18:54;;;;;;;3.10;2.90;;;;;;;21.13;37.05;101614.88;5054593;28;20175;-72
2021/01/11 00:21:20;;;;;;;3.10;2.80;;;;;;;21.12;37.34;101626.78;5054821;28;20195;-72
2021/01/11 00:23:46;;;;;;;2.93;2.73;;;;;;;21.11;37.23;101625.06;5038083;28;20214;-72
2021/01/11 00:26:13;;;;;;;2.80;2.60;;;;;;;21.12;37.29;101637.66;5037968;28;20237;-72
2021/01/11 00:28:39;;;;;;;2.87;2.67;;;;;;;21.15;37.56;101637.34;5038047;28;20210;-65
2021/01/11 00:31:05;;;;;;;3.10;2.90;;;;;;;21.13;37.63;101633.94;5021414;28;20203;-65
2021/01/11 00:33:31;;;;;;;3.03;2.83;;;;;;;21.16;37.37;101630.03;5037601;28;20191;-72
2021/01/11 00:35:57;;;;;;;2.80;2.60;;;;;;;21.17;37.53;101634.44;5021365;28;20228;-65
2021/01/11 00:38:24;;;;;;;2.70;2.50;;;;;;;21.20;37.56;101644.16;5054408;28;20184;-65
2021/01/11 00:40:50;;;;;;;2.80;2.60;;;;;;;21.22;37.68;101644.84;5021335;28;20695;-70
2021/01/11 00:43:16;;;;;;;2.50;2.40;;;;;;;21.25;37.35;101658.16;5071815;28;20232;-71
2021/01/11 00:45:42;;;;;;;3.03;2.83;;;;;;;21.27;37.57;101656.97;5054249;28;20179;-71
2021/01/11 00:48:08;;;;;;;2.90;2.70;;;;;;;21.29;37.55;101654.09;5037500;28;20184;-71
2021/01/11 00:50:34;;;;;;;2.80;2.60;;;;;;;21.30;37.31;101651.25;5071638;28;20211;-71
2021/01/11 00:53:00;;;;;;;2.67;2.47;;;;;;;21.31;37.28;101654.81;5020844;28;20221;-71
2021/01/11 00:55:26;;;;;;;3.00;2.80;;;;;;;21.31;37.40;101661.13;5054117;28;20528;-71
2021/01/11 00:57:52;;;;;;;2.80;2.60;;;;;;;21.29;37.30;101654.09;5071661;28;20186;-71
2021/01/11 01:00:19;;;;;;;2.83;2.63;;;;;;;21.30;37.28;101650.38;5051048;28;20184;-67
2021/01/11 01:02:46;;;;;;;3.00;2.80;;;;;;;21.29;37.36;101648.66;5021075;28;20180;-67
2021/01/11 01:05:12;;;;;;;2.90;2.70;;;;;;;21.27;37.04;101650.69;5037281;28;20290;-67
2021/01/11 01:07:39;;;;;;;2.57;2.47;;;;;;;21.24;36.92;101648.28;5021018;28;20530;-67
2021/01/11 01:10:05;;;;;;;2.73;2.53;;;;;;;21.21;36.99;101640.41;5044053;28;20260;-67
2021/01/11 01:12:32;;;;;;;2.97;2.77;;;;;;;21.19;36.83;101639.72;5071351;28;20191;-71
2021/01/11 01:14:58;;;;;;;2.60;2.50;;;;;;;21.19;37.01;101650.63;5053992;28;20199;-66
2021/01/11 01:17:24;;;;;;;2.90;2.70;;;;;;;21.18;37.26;101646.19;5037014;28;20245;-65
2021/01/11 01:19:50;;;;;;;2.73;2.53;;;;;;;21.17;36.91;101649.94;5053708;28;20681;-67
2021/01/11 01:22:16;;;;;;;3.00;2.80;;;;;;;21.16;37.20;101649.06;5071305;28;20238;-67
2021/01/11 01:24:42;;;;;;;2.90;2.70;;;;;;;21.14;37.04;101646.53;5053367;28;20207;-71
2021/01/11 01:27:08;;;;;;;2.77;2.57;;;;;;;21.12;37.26;101643.09;5061407;28;20219;-71
2021/01/11 01:29:34;;;;;;;2.73;2.53;;;;;;;21.12;37.28;101648.56;5036617;28;20627;-71
2021/01/11 01:32:00;;;;;;;2.80;2.60;;;;;;;21.15;37.28;101652.81;5053768;28;20222;-71
2021/01/11 01:34:26;;;;;;;2.70;2.50;;;;;;;21.15;37.62;101647.38;5071235;28;20258;-71
2021/01/11 01:36:55;;;;;;;2.47;2.37;;;;;;;21.17;37.46;101645.34;5071206;28;20266;-71
2021/01/11 01:39:21;;;;;;;2.50;2.40;;;;;;;21.19;37.50;101646.03;5037620;28;20715;-72
2021/01/11 01:41:47;;;;;;;2.67;2.47;;;;;;;21.22;37.67;101636.69;5020627;28;20229;-73
2021/01/11 01:44:13;;;;;;;2.77;2.57;;;;;;;21.24;37.59;101651.00;5053521;28;20639;-71
2021/01/11 01:46:39;;;;;;;2.60;2.40;;;;;;;21.26;37.77;101644.38;5071026;28;20599;-71
2021/01/11 01:49:06;;;;;;;2.80;2.60;;;;;;;21.30;37.43;101644.94;5053416;28;20179;-67
2021/01/11 01:51:32;;;;;;;2.43;2.33;;;;;;;21.32;37.21;101642.91;5036852;28;20226;-71
2021/01/11 01:53:58;;;;;;;2.80;2.60;;;;;;;21.32;37.35;101641.03;5070968;28;20214;-71
2021/01/11 01:56:27;;;;;;;2.50;2.30;;;;;;;21.36;37.42;101649.72;5036744;28;20274;-71
2021/01/11 01:58:53;;;;;;;2.80;2.60;;;;;;;21.36;37.42;101649.72;5053306;28;20279;-67
2021/01/11 02:01:19;;;;;;;2.77;2.57;;;;;;;21.36;37.50;101650.56;5036663;28;20183;-67
2021/01/11 02:03:45;;;;;;;2.77;2.57;;;;;;;21.35;37.46;101646.16;5036546;28;20211;-71
2021/01/11 02:06:11;;;;;;;3.07;2.83;;;;;;;21.35;37.32;101650.75;5036943;28;20258;-71
2021/01/11 02:08:42;;;;;;;2.90;2.70;;;;;;;21.34;37.43;101649.88;5035490;28;20184;-71
2021/01/11 02:11:19;;;;;;;2.97;2.77;;;;;;;21.33;37.26;101645.47;5037417;28;20222;-71
2021/01/11 02:14:10;;;;;;;3.30;3.00;;;;;;;21.31;37.26;101646.66;5054241;28;20214;-71
2021/01/11 02:16:57;;;;;;;2.90;2.70;;;;;;;21.26;37.04;101638.09;5053168;28;20183;-71
2021/01/11 02:19:37;;;;;;;2.90;2.70;;;;;;;21.23;37.16;101638.38;5036063;28;20597;-71
2021/01/11 02:22:06;;;;;;;2.57;2.40;;;;;;;21.19;37.25;101643.31;5025976;28;20195;-68
2021/01/11 02:24:54;;;;;;;3.00;2.80;;;;;;;21.19;37.14;101643.31;5019186;28;20298;-67
2021/01/11 02:27:41;;;;;;;2.90;2.70;;;;;;;21.17;36.98;101656.22;5055747;28;20202;-67
2021/01/11 02:30:30;;;;;;;2.97;2.77;;;;;;;21.17;37.20;101655.38;5039058;28;20306;-67
2021/01/11 02:32:59;;;;;;;2.73;2.53;;;;;;;21.14;37.25;101651.97;5037048;28;20191;-67
2021/01/11 02:35:25;;;;;;;2.70;2.50;;;;;;;21.12;37.07;101654.00;5030456;28;20321;-67
2021/01/11 02:37:51;;;;;;;3.20;3.00;;;;;;;21.09;37.15;101653.47;5028647;28;20199;-67
2021/01/11 02:40:17;;;;;;;2.80;2.60;;;;;;;21.09;37.43;101653.47;5023464;28;20180;-67
2021/01/11 02:42:43;;;;;;;2.77;2.57;;;;;;;21.08;37.36;101649.91;5039684;28;20183;-71
2021/01/11 02:45:10;;;;;;;2.87;2.67;;;;;;;21.09;37.43;101648.88;5040124;28;20580;-73
2021/01/11 02:47:49;;;;;;;2.80;2.60;;;;;;;21.13;37.47;101639.38;5074040;28;20219;-73
2021/01/11 02:50:16;;;;;;;2.80;2.60;;;;;;;21.14;37.54;101651.97;5040717;28;20586;-73
2021/01/11 02:53:03;;;;;;;2.60;2.40;;;;;;;21.17;37.54;101645.34;5039978;28;20207;-71
2021/01/11 02:55:44;;;;;;;2.50;2.30;;;;;;;21.21;37.61;101632.25;5059063;28;20661;-66
2021/01/11 02:58:35;;;;;;;2.60;2.50;;;;;;;21.23;37.61;101628.34;5041025;28;20183;-65
2021/01/11 03:01:02;;;;;;;2.63;2.43;;;;;;;21.24;37.59;101624.63;5019286;28;20207;-72
2021/01/11 03:03:29;;;;;;;2.83;2.63;;;;;;;21.26;37.33;101621.75;5052996;28;20568;-66
2021/01/11 03:05:55;;;;;;;2.93;2.73;;;;;;;21.26;37.37;101622.59;5030481;28;20196;-65
2021/01/11 03:08:24;;;;;;;2.90;2.60;;;;;;;21.29;37.47;101610.53;5056139;28;20210;-65
2021/01/11 03:10:51;;;;;;;2.90;2.70;;;;;;;21.29;37.23;101605.94;5039284;28;20219;-67
2021/01/11 03:13:20;;;;;;;2.83;2.63;;;;;;;21.29;37.20;101605.06;5039464;28;20222;-67
2021/01/11 03:15:46;;;;;;;2.60;2.40;;;;;;;21.29;37.28;101605.06;5073379;28;20190;-65
2021/01/11 03:18:12;;;;;;;3.00;2.80;;;;;;;21.27;37.32;101597.06;5038794;28;20202;-65
2021/01/11 03:20:38;;;;;;;2.90;2.70;;;;;;;21.26;37.03;101589.06;5022729;28;20191;-72
2021/01/11 03:23:04;;;;;;;2.73;2.53;;;;;;;21.22;36.96;101576.78;5046128;28;20290;-66
2021/01/11 03:25:31;;;;;;;2.80;2.60;;;;;;;21.19;36.94;101579.84;5053084;28;20348;-72
2021/01/11 03:27:57;;;;;;;2.73;2.53;;;;;;;21.15;37.20;101577.44;5039285;28;20184;-72
2021/01/11 03:30:23;;;;;;;2.70;2.50;;;;;;;21.15;36.96;101585.59;5055233;28;20558;-70
2021/01/11 03:32:49;;;;;;;2.80;2.60;;;;;;;21.17;37.11;101584.59;5022170;28;20207;-71
2021/01/11 03:35:15;;;;;;;2.70;2.50;;;;;;;21.17;36.93;101584.59;5055510;28;20290;-71
2021/01/11 03:37:41;;;;;;;3.20;3.00;;;;;;;21.15;37.23;101582.88;5038968;28;20188;-71
2021/01/11 03:40:08;;;;;;;2.67;2.47;;;;;;;21.13;37.23;101595.81;5073049;28;20195;-67
2021/01/11 03:42:40;;;;;;;3.00;2.80;;;;;;;21.15;37.03;101593.78;5055341;28;20260;-65
2021/01/11 03:45:07;;;;;;;2.60;2.40;;;;;;;21.13;37.38;101600.41;5055241;28;20218;-66
2021/01/11 03:47:34;;;;;;;2.67;2.47;;;;;;;21.13;37.45;101594.97;5038965;28;20206;-71
2021/01/11 03:50:00;;;;;;;2.80;2.60;;;;;;;21.13;37.33;101590.38;5037873;28;20215;-67
2021/01/11 03:52:26;;;;;;;2.60;2.40;;;;;;;21.13;37.47;101590.38;5055181;28;20205;-67
2021/01/11 03:54:52;;;;;;;2.70;2.50;;;;;;;21.17;37.46;101590.03;5055009;28;20210;-67
2021/01/11 03:57:18;;;;;;;2.73;2.53;;;;;;;21.18;37.35;101581.69;5038623;28;20184;-71
2021/01/11 03:59:44;;;;;;;2.90;2.70;;;;;;;21.20;37.53;101579.66;5055110;28;20190;-71
2021/01/11 04:02:11;;;;;;;2.73;2.53;;;;;;;21.23;37.45;101578.47;5055245;28;20187;-71
2021/01/11 04:04:37;;;;;;;2.67;2.47;;;;;;;21.24;37.54;101578.34;5054599;28;20223;-71
2021/01/11 04:07:03;;;;;;;2.77;2.57;;;;;;;21.26;37.62;101578.19;5054839;28;20195;-72
2021/01/11 04:09:29;;;;;;;2.57;2.47;;;;;;;21.28;37.32;101570.69;5072112;28;20294;-71
2021/01/11 04:11:55;;;;;;;2.80;2.60;;;;;;;21.29;37.35;101575.13;5072286;28;20266;-67
2021/01/11 04:14:21;;;;;;;2.60;2.40;;;;;;;21.30;37.18;101579.59;5054769;28;20199;-67
2021/01/11 04:16:51;;;;;;;2.77;2.57;;;;;;;21.30;37.29;101579.59;5026731;28;20296;-67
2021/01/11 04:19:17;;;;;;;2.57;2.37;;;;;;;21.29;37.33;101575.13;5003522;28;20651;-72
2021/01/11 04:21:43;;;;;;;2.90;2.70;;;;;;;21.28;37.44;101565.25;5019570;28;20232;-71
2021/01/11 04:24:09;;;;;;;2.63;2.43;;;;;;;21.26;37.24;101565.41;5047407;28;20215;-71
2021/01/11 04:26:35;;;;;;;2.43;2.33;;;;;;;21.25;37.28;101568.31;5052452;28;20295;-67
2021/01/11 04:29:01;;;;;;;2.50;2.40;;;;;;;21.22;37.21;101566.72;5071664;28;20207;-65
2021/01/11 04:31:27;;;;;;;2.80;2.60;;;;;;;21.18;37.15;101570.81;5071977;28;20658;-67
2021/01/11 04:33:53;;;;;;;2.63;2.43;;;;;;;21.18;37.11;101578.97;5053261;28;20280;-67
2021/01/11 04:36:19;;;;;;;2.70;2.50;;;;;;;21.17;36.85;101571.81;5014940;28;20617;-72
2021/01/11 04:38:46;;;;;;;2.43;2.23;;;;;;;21.18;37.18;101569.97;5015312;28;20238;-72
2021/01/11 04:41:13;;;;;;;2.90;2.70;;;;;;;21.18;36.93;101572.69;5015104;28;20255;-72
2021/01/11 04:43:43;;;;;;;2.60;2.40;;;;;;;21.17;36.89;101584.59;4998290;28;20631;-65
2021/01/11 04:46:09;;;;;;;2.97;2.60;;;;;;;21.14;37.23;101589.34;5014753;28;20185;-65
2021/01/11 04:48:35;;;;;;;2.67;2.47;;;;;;;21.11;37.34;101592.41;5014565;28;20667;-65
2021/01/11 04:51:02;;;;;;;2.93;2.73;;;;;;;21.11;37.08;101578.78;5019335;28;20215;-65
2021/01/11 04:53:28;;;;;;;2.60;2.40;;;;;;;21.11;37.41;101572.50;5037613;28;20190;-66
2021/01/11 04:55:55;;;;;;;2.57;2.40;;;;;;;21.11;37.39;101573.34;5071651;28;20188;-67
2021/01/11 04:58:21;;;;;;;2.60;2.40;;;;;;;21.12;37.40;101566.88;5021293;28;20274;-67
2021/01/11 05:00:47;;;;;;;2.47;2.30;;;;;;;21.15;37.57;101568.41;5037132;28;20191;-67
2021/01/11 05:03:14;;;;;;;2.87;2.60;;;;;;;21.15;37.39;101555.66;5020345;28;20676;-67
2021/01/11 05:05:46;;;;;;;2.47;2.30;;;;;;;21.19;37.38;101566.22;5053947;28;20214;-67
2021/01/11 05:08:12;;;;;;;2.80;2.60;;;;;;;21.21;37.38;101564.19;5071530;28;20198;-67
2021/01/11 05:10:39;;;;;;;2.80;2.60;;;;;;;21.23;37.62;101563.00;5052549;28;20217;-67
2021/01/11 05:13:09;;;;;;;2.60;2.40;;;;;;;21.25;37.56;101557.41;5046738;28;20269;-66
2021/01/11 05:15:36;;;;;;;2.67;2.50;;;;;;;21.27;37.56;101558.09;5042103;28;20655;-65
2021/01/11 05:18:13;;;;;;;2.70;2.50;;;;;;;21.27;37.58;101561.66;5053704;28;20219;-65
2021/01/11 05:20:39;;;;;;;2.90;2.70;;;;;;;21.30;37.43;101552.34;5038755;28;20172;-66
2021/01/11 05:23:10;;;;;;;2.67;2.47;;;;;;;21.30;37.26;101553.19;5053589;28;20188;-66
2021/01/11 05:25:37;;;;;;;2.70;2.50;;;;;;;21.29;37.41;101546.03;5037381;28;20215;-65
2021/01/11 05:28:07;;;;;;;2.70;2.50;;;;;;;21.30;37.08;101544.19;5071283;28;20175;-66
2021/01/11 05:30:39;;;;;;;2.60;2.40;;;;;;;21.29;37.28;101553.34;5053525;28;20837;-72
2021/01/11 05:33:06;;;;;;;2.83;2.67;;;;;;;21.27;36.87;101555.38;5062423;28;20191;-72
2021/01/11 05:35:32;;;;;;;2.70;2.50;;;;;;;21.25;36.90;101554.69;5037096;28;20239;-72
2021/01/11 05:38:01;;;;;;;2.90;2.70;;;;;;;21.22;37.12;101555.00;5053590;28;20278;-72
2021/01/11 05:40:28;;;;;;;2.83;2.63;;;;;;;21.18;37.08;101546.31;5054115;28;20195;-73
2021/01/11 05:42:58;;;;;;;2.73;2.53;;;;;;;21.15;37.09;101544.78;5037208;28;20608;-73
2021/01/11 05:45:25;;;;;;;3.00;2.80;;;;;;;21.13;36.91;101541.38;5037127;28;20559;-71
2021/01/11 05:47:59;;;;;;;3.00;2.80;;;;;;;21.13;36.78;101535.91;5066659;28;20714;-71
2021/01/11 05:50:36;;;;;;;3.00;2.80;;;;;;;21.12;37.19;101528.75;5053422;28;20211;-71
2021/01/11 05:53:02;;;;;;;2.93;2.73;;;;;;;21.08;37.08;101521.09;5037265;28;20409;-71
2021/01/11 05:55:30;;;;;;;2.90;2.70;;;;;;;21.08;37.35;101516.50;5045289;28;20240;-71
2021/01/11 05:58:00;;;;;;;2.90;2.70;;;;;;;21.09;37.18;101511.91;5033187;28;20692;-71
2021/01/11 06:00:30;;;;;;;2.60;2.40;;;;;;;21.10;37.30;101506.31;5053397;28;20245;-71
2021/01/11 06:02:58;;;;;;;2.80;2.60;;;;;;;21.10;37.41;101503.59;5020821;28;20270;-65
2021/01/11 06:05:24;;;;;;;2.70;2.50;;;;;;;21.11;37.30;101499.00;5018686;28;20224;-65
2021/01/11 06:07:50;;;;;;;2.80;2.60;;;;;;;21.13;37.38;101496.94;5052497;28;20209;-65
2021/01/11 06:10:17;;;;;;;2.77;2.57;;;;;;;21.15;37.29;101501.22;5020292;28;20216;-65
2021/01/11 06:12:44;;;;;;;2.77;2.57;;;;;;;21.17;37.40;101509.22;5036229;28;20647;-68
2021/01/11 06:15:11;;;;;;;2.60;2.40;;;;;;;21.20;37.53;101508.03;5040436;28;20211;-67
2021/01/11 06:17:41;;;;;;;2.27;2.17;;;;;;;21.23;37.44;101513.97;5040926;28;20535;-72
2021/01/11 06:20:18;;;;;;;2.50;2.40;;;;;;;21.26;37.24;101518.28;5074717;28;20222;-67
2021/01/11 06:22:44;;;;;;;2.60;2.40;;;;;;;21.25;37.58;101522.88;5074587;28;20566;-67
2021/01/11 06:25:19;;;;;;;2.30;2.20;;;;;;;21.29;37.53;101523.38;5074366;28;20207;-67
2021/01/11 06:28:08;;;;;;;2.80;2.60;;;;;;;21.31;37.53;101529.53;5074864;28;20191;-65
2021/01/11 06:30:34;;;;;;;2.50;2.40;;;;;;;21.32;37.21;101520.34;5074337;28;20299;-72
2021/01/11 06:33:09;;;;;;;2.50;2.30;;;;;;;21.36;37.39;101536.19;5048018;28;20188;-73
2021/01/11 06:35:46;;;;;;;2.50;2.30;;;;;;;21.36;37.36;101543.50;5074144;28;20199;-73
2021/01/11 06:38:20;;;;;;;2.40;2.20;;;;;;;21.38;37.07;101536.88;5039902;28;20627;-73
2021/01/11 06:40:47;;;;;;;2.50;2.30;;;;;;;21.38;37.39;101533.28;5056960;28;20180;-73
2021/01/11 06:43:14;;;;;;;2.60;2.40;;;;;;;21.39;37.35;101540.44;5055479;28;20230;-73
2021/01/11 06:45:41;;;;;;;2.77;2.60;;;;;;;21.39;37.14;101530.41;5039571;28;20203;-73
2021/01/11 06:48:08;;;;;;;2.40;2.20;;;;;;;21.39;37.10;101519.50;5056500;28;20182;-66
2021/01/11 06:50:35;;;;;;;2.50;2.30;;;;;;;21.38;37.38;101508.78;5023249;28;20199;-63
2021/01/11 06:53:02;;;;;;;2.80;2.60;;;;;;;21.37;37.41;101507.09;5056318;28;20192;-66
2021/01/11 06:55:28;;;;;;;2.93;2.73;;;;;;;21.36;37.15;101497.22;5056549;28;20199;-65
2021/01/11 06:57:58;;;;;;;3.20;2.90;;;;;;;21.36;37.14;101508.09;5073983;28;20229;-66
2021/01/11 07:00:36;;;;;;;3.20;3.00;;;;;;;21.35;37.34;101498.22;5039947;28;20191;-65
2021/01/11 07:03:03;;;;;;;3.17;2.97;;;;;;;21.33;37.46;101503.84;5039473;28;20187;-65
2021/01/11 07:05:36;;;;;;;3.07;2.87;;;;;;;21.32;37.17;101502.16;5035804;28;20303;-65
2021/01/11 07:08:03;;;;;;;2.90;2.70;;;;;;;21.29;37.20;101507.91;5056297;28;20168;-65
2021/01/11 07:10:29;;;;;;;2.90;2.70;;;;;;;21.28;37.48;101511.63;5073616;28;20220;-66
2021/01/11 07:13:16;;;;;;;2.97;2.67;;;;;;;21.30;37.39;101506.06;5055921;28;20266;-66
2021/01/11 07:15:52;;;;;;;2.90;2.70;;;;;;;21.26;37.47;101513.69;5068300;28;20266;-66
2021/01/11 07:18:44;;;;;;;2.50;2.40;;;;;;;21.27;37.56;101518.09;5057176;28;20285;-69
2021/01/11 07:21:13;;;;;;;2.70;2.50;;;;;;;21.24;37.50;101514.88;5039418;28;20172;-66
2021/01/11 07:23:39;;;;;;;2.80;2.60;;;;;;;21.23;37.31;101515.84;5056020;28;20366;-67
2021/01/11 07:26:14;;;;;;;2.57;2.40;;;;;;;21.23;37.46;101510.41;5038411;28;20191;-66
2021/01/11 07:28:48;;;;;;;2.63;2.43;;;;;;;21.19;37.33;101504.44;5039186;28;20183;-66
2021/01/11 07:31:18;;;;;;;3.10;2.80;;;;;;;21.19;37.44;101512.63;5055768;28;20204;-66
2021/01/11 07:33:44;;;;;;;2.60;2.40;;;;;;;21.17;37.58;101513.81;5059447;28;20281;-66
2021/01/11 07:36:18;;;;;;;2.60;2.40;;;;;;;21.17;37.36;101519.25;5030150;28;20192;-70
2021/01/11 07:38:44;;;;;;;2.57;2.37;;;;;;;21.11;37.58;101499.84;4995224;28;20199;-71
2021/01/11 07:41:21;;;;;;;2.80;2.60;;;;;;;21.11;37.40;101493.53;5035311;28;20168;-71
2021/01/11 07:43:47;;;;;;;2.60;2.40;;;;;;;21.09;37.69;101507.31;5035155;28;20199;-71
2021/01/11 07:46:13;;;;;;;2.40;2.30;;;;;;;21.08;37.78;101504.78;5034763;28;20777;-72
2021/01/11 07:48:40;;;;;;;2.57;2.37;;;;;;;21.07;37.53;101511.22;5035267;28;20203;-71
2021/01/11 07:51:10;;;;;;;2.30;2.20;;;;;;;21.05;37.70;101511.38;5052557;28;20206;-71
2021/01/11 07:53:37;;;;;;;2.70;2.50;;;;;;;21.05;37.76;101507.78;5018790;28;20204;-71
2021/01/11 07:56:07;;;;;;;2.70;2.50;;;;;;;21.04;37.62;101500.66;5018929;28;20192;-71
2021/01/11 07:58:34;;;;;;;2.70;2.50;;;;;;;21.03;37.58;101496.22;5002419;28;20568;-71
2021/01/11 08:01:08;;;;;;;2.20;2.10;;;;;;;21.06;37.97;101485.88;5018934;28;20194;-71
2021/01/11 08:03:34;;;;;;;2.50;2.30;;;;;;;21.06;37.92;101475.00;5035025;28;20308;-71
2021/01/11 08:06:01;;;;;;;2.50;2.30;;;;;;;21.09;37.99;101485.53;5034832;28;20188;-72
2021/01/11 08:08:28;;;;;;;2.60;2.40;;;;;;;21.12;37.85;101476.19;5018539;28;20905;-72
2021/01/11 08:10:55;;;;;;;2.33;2.17;;;;;;;21.15;37.90;101476.69;5018520;28;20734;-72
2021/01/11 08:13:22;;;;;;;2.47;2.30;;;;;;;21.18;37.79;101480.97;5018260;28;20805;-72
2021/01/11 08:15:53;;;;;;;2.53;2.33;;;;;;;21.22;37.78;101473.31;5035112;28;20608;-72
2021/01/11 08:18:20;;;;;;;2.30;2.20;;;;;;;21.23;37.80;101470.41;5035111;28;20263;-67
2021/01/11 08:20:46;;;;;;;2.37;2.20;;;;;;;21.25;37.71;101473.00;5049275;28;20512;-67
2021/01/11 08:23:12;;;;;;;2.20;2.10;;;;;;;21.28;37.65;101464.50;5027100;28;20241;-66
2021/01/11 08:25:39;;;;;;;2.20;2.10;;;;;;;21.31;38.06;101466.91;5034493;28;20177;-71
2021/01/11 08:28:05;;;;;;;2.43;2.33;;;;;;;21.33;37.73;101471.16;5018062;28;20238;-71
2021/01/11 08:30:31;;;;;;;2.50;2.37;;;;;;;21.35;37.67;101474.56;5033397;28;20597;-72
2021/01/11 08:32:58;;;;;;;2.40;2.30;;;;;;;21.38;37.41;101468.78;5054587;28;20195;-68
2021/01/11 08:35:24;;;;;;;2.17;2.07;;;;;;;21.38;37.57;101452.44;5035709;28;20205;-68
2021/01/11 08:37:50;;;;;;;2.10;2.00;;;;;;;21.40;37.33;101452.28;5034476;28;20414;-67
2021/01/11 08:40:29;;;;;;;2.40;2.20;;;;;;;21.42;37.30;101447.50;5017621;28;20184;-71
2021/01/11 08:43:23;;;;;;;2.20;2.10;;;;;;;21.43;37.29;101460.09;5021941;28;20195;-71
2021/01/11 08:45:53;;;;;;;2.50;2.30;;;;;;;21.42;37.62;101452.94;5056847;28;20733;-71
2021/01/11 08:48:24;;;;;;;2.17;2.07;;;;;;;21.41;37.37;101464.88;5054550;28;20191;-71
2021/01/11 08:50:50;;;;;;;2.50;2.30;;;;;;;21.40;37.47;101468.63;5021019;28;20646;-71
2021/01/11 08:53:26;;;;;;;2.60;2.40;;;;;;;21.40;37.40;101479.50;5064601;28;20395;-71
2021/01/11 08:56:01;;;;;;;2.50;2.30;;;;;;;21.40;37.37;101455.00;5034043;28;20180;-71
2021/01/11 08:58:28;;;;;;;2.10;2.00;;;;;;;21.36;37.61;101435.41;5034446;28;20291;-72
2021/01/11 09:01:12;;;;;;;2.30;2.20;;;;;;;21.38;37.43;101427.09;5040087;28;20184;-72
2021/01/11 09:03:43;;;;;;;2.50;2.30;;;;;;;21.37;37.45;101417.22;5048743;28;20215;-71
2021/01/11 09:06:10;;;;;;;2.30;2.10;;;;;;;21.35;37.28;101436.44;5034185;28;20192;-71
2021/01/11 09:08:36;;;;;;;2.20;2.10;;;;;;;21.35;37.45;101432.88;5032007;28;20215;-71
2021/01/11 09:11:09;;;;;;;2.20;2.00;;;;;;;21.35;37.38;101435.59;5037452;28;20230;-71
2021/01/11 09:13:35;;;;;;;2.40;2.20;;;;;;;21.32;37.30;101435.94;5028487;28;20222;-71
2021/01/11 09:16:14;;;;;;;2.53;2.33;;;;;;;21.33;37.47;101430.31;5051814;28;20253;-71
2021/01/11 09:18:41;;;;;;;2.13;2.03;;;;;;;21.31;37.31;101439.69;5020761;28;20191;-71
2021/01/11 09:21:09;;;;;;;2.43;2.23;;;;;;;21.29;37.60;101441.69;5024645;28;20577;-71
2021/01/11 09:23:36;;;;;;;2.27;2.17;;;;;;;21.28;37.66;101450.88;5017920;28;20235;-71
2021/01/11 09:26:02;;;;;;;2.20;2.10;;;;;;;21.27;37.66;101451.91;5001132;28;20198;-71
2021/01/11 09:28:28;;;;;;;2.20;2.00;;;;;;;21.25;37.53;101445.78;5017383;28;20523;-71
2021/01/11 09:30:54;;;;;;;2.20;2.10;;;;;;;21.24;37.62;101441.34;5034379;28;20203;-71
2021/01/11 09:33:20;;;;;;;2.00;1.90;;;;;;;21.23;37.29;101436.88;5035607;28;20195;-71
2021/01/11 09:35:46;;;;;;;2.17;2.03;;;;;;;21.21;37.51;101428.03;5059214;28;20203;-71
2021/01/11 09:38:12;;;;;;;2.33;2.13;;;;;;;21.20;37.41;101426.34;5017396;28;20176;-71
2021/01/11 09:40:38;;;;;;;2.00;1.90;;;;;;;21.18;37.44;101437.41;5051045;28;20180;-71
2021/01/11 09:43:04;;;;;;;2.00;1.90;;;;;;;21.15;37.49;101424.13;5033511;28;20180;-71
2021/01/11 09:45:30;;;;;;;2.10;2.00;;;;;;;21.15;37.49;101418.69;5033437;28;20283;-71
2021/01/11 09:47:57;;;;;;;2.00;1.90;;;;;;;21.12;37.59;101424.47;5035546;28;20208;-72
2021/01/11 09:50:23;;;;;;;2.30;2.13;;;;;;;21.11;37.77;101429.06;5034445;28;20358;-71
2021/01/11 09:52:49;;;;;;;2.00;1.90;;;;;;;21.10;37.66;101435.53;5047013;28;20196;-71
2021/01/11 09:55:15;;;;;;;2.00;1.80;;;;;;;21.10;37.72;101445.56;5024944;28;20244;-72
2021/01/11 09:57:41;;;;;;;2.10;2.00;;;;;;;21.08;37.53;101445.72;5057402;28;20226;-72
2021/01/11 10:00:09;;;;;;;1.80;1.70;;;;;;;21.08;37.58;101447.59;5040580;28;20176;-72
2021/01/11 10:02:36;;;;;;;1.80;1.70;;;;;;;21.05;37.49;101443.31;5057592;28;20233;-72
2021/01/11 10:05:02;;;;;;;1.80;1.70;;;;;;;21.05;37.55;101435.16;5043315;28;20679;-71
2021/01/11 10:07:28;;;;;;;2.00;1.90;;;;;;;21.04;37.52;101438.88;5037089;28;20199;-72
2021/01/11 10:09:54;;;;;;;1.80;1.70;;;;;;;21.04;37.58;101444.34;5037013;28;20180;-71
2021/01/11 10:12:20;;;;;;;1.77;1.67;;;;;;;21.03;37.99;101431.75;5020498;28;20683;-72
2021/01/11 10:14:46;;;;;;;1.73;1.63;;;;;;;21.04;37.72;101428.00;5036819;28;20207;-72
2021/01/11 10:17:12;;;;;;;2.00;1.90;;;;;;;21.06;37.83;101431.44;5037022;28;20215;-72
2021/01/11 10:19:38;;;;;;;1.87;1.77;;;;;;;21.08;37.76;101418.50;5020710;28;20263;-71
2021/01/11 10:22:04;;;;;;;1.60;1.50;;;;;;;21.11;37.98;101406.44;5054537;28;20188;-71
2021/01/11 10:24:30;;;;;;;1.90;1.80;;;;;;;21.14;37.79;101406.94;5037018;28;20251;-71
2021/01/11 10:26:57;;;;;;;1.70;1.60;;;;;;;21.14;37.86;101412.38;5054719;28;20193;-67
2021/01/11 10:29:24;;;;;;;1.83;1.73;;;;;;;21.17;37.82;101413.06;5054364;28;20195;-67
2021/01/11 10:31:50;;;;;;;1.90;1.70;;;;;;;21.19;37.98;101413.75;5036767;28;20234;-68
2021/01/11 10:34:17;;;;;;;1.70;1.60;;;;;;;21.21;37.73;101418.00;5049085;28;20659;-66
2021/01/11 10:36:45;;;;;;;1.90;1.80;;;;;;;21.25;37.89;101408.50;5048684;28;20543;-71
2021/01/11 10:39:11;;;;;;;1.70;1.60;;;;;;;21.28;37.84;101407.31;5023711;28;20222;-72
2021/01/11 10:41:37;;;;;;;1.83;1.73;;;;;;;21.30;37.64;101399.84;5056388;28;20207;-71
2021/01/11 10:44:04;;;;;;;1.90;1.80;;;;;;;21.32;37.46;101392.38;5056313;28;20203;-71
2021/01/11 10:46:31;;;;;;;1.70;1.60;;;;;;;21.33;37.41;101394.06;5065018;28;20211;-71
2021/01/11 10:48:57;;;;;;;1.70;1.60;;;;;;;21.33;37.68;101392.19;5039920;28;20180;-71
2021/01/11 10:51:23;;;;;;;2.10;1.87;;;;;;;21.33;37.60;101394.91;5036419;28;20207;-71
2021/01/11 10:53:49;;;;;;;1.80;1.70;;;;;;;21.34;37.54;101388.44;5036703;28;20659;-71
2021/01/11 10:56:16;;;;;;;1.53;1.47;;;;;;;21.34;37.26;101379.44;5030047;28;20208;-71
2021/01/11 10:58:42;;;;;;;1.80;1.70;;;;;;;21.32;37.33;101384.19;5039647;28;20199;-71
2021/01/11 11:01:10;;;;;;;1.90;1.80;;;;;;;21.32;37.55;101371.44;5033865;28;20675;-71
2021/01/11 11:03:36;;;;;;;1.83;1.73;;;;;;;21.32;37.61;101376.03;5020856;28;20227;-72
2021/01/11 11:06:02;;;;;;;1.60;1.50;;;;;;;21.30;37.54;101365.31;5036739;28;20188;-72
2021/01/11 11:08:28;;;;;;;1.90;1.80;;;;;;;21.30;37.56;101361.72;5044206;28;20187;-72
2021/01/11 11:10:54;;;;;;;1.80;1.70;;;;;;;21.30;37.61;101359.84;5039323;28;20200;-72
2021/01/11 11:13:20;;;;;;;1.50;1.40;;;;;;;21.29;37.56;101349.09;5073429;28;20179;-67
2021/01/11 11:15:46;;;;;;;1.67;1.57;;;;;;;21.28;37.36;101352.84;5037914;28;20228;-68
2021/01/11 11:18:13;;;;;;;1.70;1.60;;;;;;;21.27;37.51;101346.56;5015764;28;20650;-68
2021/01/11 11:20:40;;;;;;;1.70;1.60;;;;;;;21.26;37.37;101344.84;4999719;28;20732;-68
2021/01/11 11:23:06;;;;;;;1.73;1.63;;;;;;;21.26;37.29;101341.28;4994452;28;20561;-68
2021/01/11 11:25:32;;;;;;;1.60;1.50;;;;;;;21.25;37.66;101342.31;5036769;28;20215;-68
2021/01/11 11:27:58;;;;;;;1.60;1.50;;;;;;;21.24;37.60;101346.06;5039339;28;20194;-66
2021/01/11 11:30:24;;;;;;;1.70;1.60;;;;;;;21.23;37.63;101338.88;5055673;28;20207;-65